createdAt,value
2022-10-10T00:02:39.443Z,101030.09
2022-10-10T00:05:24.851Z,101036.13
2022-10-10T00:08:11.191Z,101044.72
2022-10-10T00:10:56.811Z,101048.97
2022-10-10T00:13:43.182Z,101054.19
2022-10-10T00:16:28.597Z,101052.38
2022-10-10T00:19:14.652Z,101047.97
2022-10-10T00:22:00.094Z,101058.28
2022-10-10T00:24:45.595Z,101054.75
2022-10-10T00:27:31.095Z,101059.06
2022-10-10T00:30:16.560Z,101058.94
2022-10-10T00:33:02.287Z,101052.00
2022-10-10T00:35:49.489Z,101061.41
2022-10-10T00:38:35.033Z,101065.53
2022-10-10T00:41:22.378Z,101074.13
2022-10-10T00:44:13.959Z,101071.50
2022-10-10T00:46:59.461Z,101069.59
2022-10-10T00:49:44.931Z,101072.94
2022-10-10T00:52:30.357Z,101079.88
2022-10-10T00:55:17.068Z,101086.72
2022-10-10T00:58:05.288Z,101090.97
2022-10-10T01:00:52.071Z,101103.00
2022-10-10T01:03:37.695Z,101101.97
2022-10-10T01:06:23.396Z,101099.31
2022-10-10T01:09:08.828Z,101109.53
2022-10-10T01:12:24.560Z,101107.75
2022-10-10T01:15:33.732Z,101114.66
2022-10-10T01:18:22.385Z,101120.59
2022-10-10T01:21:17.528Z,101119.59
2022-10-10T01:24:12.029Z,101116.16
2022-10-10T01:27:08.017Z,101134.16
2022-10-10T01:29:58.115Z,101130.69
2022-10-10T01:32:51.300Z,101134.09
2022-10-10T01:35:55.826Z,101132.25
2022-10-10T01:38:55.821Z,101135.59
2022-10-10T01:41:54.569Z,101128.56
2022-10-10T01:44:44.797Z,101138.97
2022-10-10T01:47:30.518Z,101150.34
2022-10-10T01:50:20.257Z,101146.06
2022-10-10T01:53:22.648Z,101154.03
2022-10-10T01:56:17.484Z,101159.31
2022-10-10T01:59:24.740Z,101154.94
2022-10-10T02:02:33.936Z,101160.22
2022-10-10T02:05:47.403Z,101168.91
2022-10-10T02:08:41.324Z,101176.59
2022-10-10T02:11:31.362Z,101180.94
2022-10-10T02:14:27.618Z,101182.63
2022-10-10T02:17:15.777Z,101194.81
2022-10-10T02:20:01.308Z,101195.63
2022-10-10T02:22:48.665Z,101199.03
2022-10-10T02:25:40.132Z,101207.78
2022-10-10T02:28:25.569Z,101209.53
2022-10-10T02:31:16.992Z,101205.19
2022-10-10T02:34:11.957Z,101210.44
2022-10-10T02:37:02.890Z,101209.53
2022-10-10T02:39:52.151Z,101219.88
2022-10-10T02:42:40.181Z,101219.97
2022-10-10T02:45:26.516Z,101225.91
2022-10-10T02:48:11.905Z,101222.44
2022-10-10T02:50:57.678Z,101222.44
2022-10-10T02:53:43.185Z,101230.22
2022-10-10T02:56:28.662Z,101234.41
2022-10-10T02:59:14.040Z,101237.03
2022-10-10T03:01:59.612Z,101236.97
2022-10-10T03:04:44.959Z,101239.50
2022-10-10T03:07:30.591Z,101243.75
2022-10-10T03:10:16.328Z,101252.47
2022-10-10T03:13:01.606Z,101253.16
2022-10-10T03:15:47.032Z,101260.78
2022-10-10T03:18:32.708Z,101264.97
2022-10-10T03:21:18.521Z,101267.56
2022-10-10T03:24:05.499Z,101270.38
2022-10-10T03:26:50.904Z,101279.19
2022-10-10T03:29:36.387Z,101275.25
2022-10-10T03:32:21.818Z,101275.47
2022-10-10T03:35:07.603Z,101282.31
2022-10-10T03:37:53.039Z,101276.41
2022-10-10T03:40:43.324Z,101273.09
2022-10-10T03:43:28.790Z,101279.88
2022-10-10T03:46:16.482Z,101284.06
2022-10-10T03:49:02.169Z,101283.88
2022-10-10T03:51:47.646Z,101286.34
2022-10-10T03:54:32.953Z,101299.28
2022-10-10T03:57:18.200Z,101295.78
2022-10-10T04:00:04.616Z,101300.81
2022-10-10T04:02:50.675Z,101310.16
2022-10-10T04:05:37.959Z,101304.84
2022-10-10T04:08:24.887Z,101318.78
2022-10-10T04:11:10.569Z,101321.41
2022-10-10T04:13:55.853Z,101324.75
2022-10-10T04:16:41.239Z,101326.53
2022-10-10T04:19:26.513Z,101328.16
2022-10-10T04:22:12.459Z,101335.97
2022-10-10T04:24:57.721Z,101347.22
2022-10-10T04:27:44.141Z,101346.22
2022-10-10T04:30:33.885Z,101349.56
2022-10-10T04:33:19.540Z,101358.13
2022-10-10T04:36:05.369Z,101358.06
2022-10-10T04:38:50.809Z,101378.59
2022-10-10T04:41:36.130Z,101368.94
2022-10-10T04:44:21.461Z,101372.25
2022-10-10T04:47:07.320Z,101376.34
2022-10-10T04:49:52.673Z,101380.69
2022-10-10T04:52:38.056Z,101380.63
2022-10-10T04:55:23.494Z,101389.28
2022-10-10T04:58:09.251Z,101394.44
2022-10-10T05:00:55.603Z,101395.16
2022-10-10T05:03:40.963Z,101406.34
2022-10-10T05:06:26.273Z,101418.34
2022-10-10T05:09:11.838Z,101433.03
2022-10-10T05:11:57.387Z,101430.41
2022-10-10T05:14:47.821Z,101431.28
2022-10-10T05:17:33.645Z,101435.50
2022-10-10T05:20:19.778Z,101435.56
2022-10-10T05:23:05.273Z,101441.50
2022-10-10T05:25:51.558Z,101452.72
2022-10-10T05:28:37.566Z,101454.53
2022-10-10T05:31:23.027Z,101455.28
2022-10-10T05:34:13.052Z,101467.34
2022-10-10T05:36:58.721Z,101468.94
2022-10-10T05:39:44.470Z,101475.03
2022-10-10T05:42:29.863Z,101482.78
2022-10-10T05:45:15.343Z,101479.25
2022-10-10T05:48:01.011Z,101486.16
2022-10-10T05:50:49.286Z,101487.84
2022-10-10T05:53:34.747Z,101493.78
2022-10-10T05:56:20.021Z,101504.28
2022-10-10T05:59:05.565Z,101505.34
2022-10-10T06:01:51.209Z,101513.91
2022-10-10T06:04:36.733Z,101514.06
2022-10-10T06:07:22.459Z,101523.59
2022-10-10T06:10:08.834Z,101520.00
2022-10-10T06:12:54.520Z,101520.94
2022-10-10T06:15:40.511Z,101517.41
2022-10-10T06:18:26.517Z,101526.06
2022-10-10T06:21:12.753Z,101525.09
2022-10-10T06:23:58.097Z,101533.63
2022-10-10T06:26:43.586Z,101543.19
2022-10-10T06:29:29.100Z,101546.53
2022-10-10T06:32:14.540Z,101547.38
2022-10-10T06:35:00.347Z,101550.69
2022-10-10T06:37:45.919Z,101566.19
2022-10-10T06:40:31.388Z,101569.75
2022-10-10T06:43:17.839Z,101574.19
2022-10-10T06:46:03.637Z,101586.09
2022-10-10T06:48:49.227Z,101581.63
2022-10-10T06:51:35.003Z,101596.31
2022-10-10T06:54:20.743Z,101595.31
2022-10-10T06:57:06.095Z,101609.94
2022-10-10T06:59:51.403Z,101610.75
2022-10-10T07:02:40.785Z,101615.03
2022-10-10T07:05:25.991Z,101622.91
2022-10-10T07:08:11.269Z,101636.75
2022-10-10T07:10:57.271Z,101639.38
2022-10-10T07:13:42.557Z,101635.94
2022-10-10T07:16:28.188Z,101650.63
2022-10-10T07:19:14.036Z,101650.72
2022-10-10T07:21:59.382Z,101653.44
2022-10-10T07:24:45.348Z,101656.94
2022-10-10T07:27:31.042Z,101663.13
2022-10-10T07:30:16.831Z,101673.56
2022-10-10T07:33:02.303Z,101672.69
2022-10-10T07:35:54.275Z,101689.94
2022-10-10T07:38:40.181Z,101688.44
2022-10-10T07:41:25.582Z,101693.59
2022-10-10T07:44:11.013Z,101691.13
2022-10-10T07:46:56.423Z,101706.03
2022-10-10T07:49:41.936Z,101706.16
2022-10-10T07:52:27.293Z,101707.97
2022-10-10T07:55:12.795Z,101715.91
2022-10-10T07:57:59.939Z,101721.31
2022-10-10T08:00:45.312Z,101724.94
2022-10-10T08:03:30.762Z,101723.34
2022-10-10T08:06:18.267Z,101740.78
2022-10-10T08:09:03.945Z,101741.88
2022-10-10T08:11:49.643Z,101755.91
2022-10-10T08:14:34.775Z,101758.00
2022-10-10T08:17:20.337Z,101758.28
2022-10-10T08:20:06.322Z,101768.94
2022-10-10T08:22:52.131Z,101771.06
2022-10-10T08:25:37.853Z,101780.81
2022-10-10T08:28:24.112Z,101781.03
2022-10-10T08:31:13.067Z,101784.63
2022-10-10T08:33:58.397Z,101793.56
2022-10-10T08:36:43.759Z,101790.41
2022-10-10T08:39:29.207Z,101795.88
2022-10-10T08:42:30.642Z,101802.28
2022-10-10T08:45:23.923Z,101802.66
2022-10-10T08:48:16.612Z,101809.16
2022-10-10T08:51:11.417Z,101816.31
2022-10-10T08:54:01.706Z,101813.97
2022-10-10T08:56:47.733Z,101816.88
2022-10-10T08:59:40.691Z,101822.28
2022-10-10T09:02:55.367Z,101823.53
2022-10-10T09:05:40.950Z,101824.66
2022-10-10T09:08:27.018Z,101827.53
2022-10-10T09:11:41.917Z,101834.72
2022-10-10T09:15:02.067Z,101838.59
2022-10-10T09:18:13.085Z,101837.25
2022-10-10T09:21:23.325Z,101847.06
2022-10-10T09:24:25.090Z,101849.91
2022-10-10T09:27:19.214Z,101856.31
2022-10-10T09:30:14.106Z,101855.00
2022-10-10T09:33:07.666Z,101866.66
2022-10-10T09:35:55.136Z,101860.00
2022-10-10T09:38:55.568Z,101863.84
2022-10-10T09:41:52.626Z,101871.00
2022-10-10T09:44:39.982Z,101862.53
2022-10-10T09:47:25.512Z,101862.78
2022-10-10T09:50:15.626Z,101860.34
2022-10-10T09:53:00.975Z,101868.34
2022-10-10T09:55:48.508Z,101869.38
2022-10-10T09:58:38.166Z,101868.63
2022-10-10T10:01:32.838Z,101882.63
2022-10-10T10:04:28.826Z,101881.19
2022-10-10T10:07:36.243Z,101885.72
2022-10-10T10:10:25.512Z,101891.16
2022-10-10T10:13:19.574Z,101888.84
2022-10-10T10:16:15.027Z,101888.22
2022-10-10T10:19:01.299Z,101887.56
2022-10-10T10:21:51.905Z,101895.50
2022-10-10T10:24:37.726Z,101893.00
2022-10-10T10:27:26.186Z,101900.97
2022-10-10T10:30:24.900Z,101900.34
2022-10-10T10:33:21.996Z,101905.88
2022-10-10T10:36:10.584Z,101907.09
2022-10-10T10:39:53.890Z,101901.31
2022-10-10T10:42:48.640Z,101905.72
2022-10-10T10:45:58.552Z,101900.59
2022-10-10T10:48:49.896Z,101899.84
2022-10-10T10:52:09.565Z,101906.00
2022-10-10T10:55:12.092Z,101898.28
2022-10-10T11:01:56.816Z,101898.03
2022-10-10T11:05:18.390Z,101899.13
2022-10-10T11:08:23.276Z,101899.28
2022-10-10T11:11:30.651Z,101901.97
2022-10-10T11:15:05.055Z,101910.72
2022-10-10T11:18:01.459Z,101910.16
2022-10-10T11:20:53.015Z,101912.97
2022-10-10T11:23:54.982Z,101927.91
2022-10-10T11:26:45.665Z,101936.56
2022-10-10T11:29:48.299Z,101941.03
2022-10-10T11:32:37.966Z,101925.47
2022-10-10T11:35:34.598Z,101931.78
2022-10-10T11:38:38.650Z,101945.81
2022-10-10T11:41:33.499Z,101952.06
2022-10-10T11:44:25.539Z,101954.75
2022-10-10T11:47:22.595Z,101956.63
2022-10-10T11:50:18.328Z,101957.56
2022-10-10T11:53:31.028Z,101951.56
2022-10-10T11:56:40.204Z,101956.06
2022-10-10T11:59:35.241Z,101974.53
2022-10-10T12:02:42.516Z,101978.00
2022-10-10T12:05:31.180Z,101978.03
2022-10-10T12:08:24.995Z,101991.78
2022-10-10T12:11:16.562Z,101986.56
2022-10-10T12:14:06.799Z,101984.06
2022-10-10T12:16:53.577Z,101986.88
2022-10-10T12:19:38.958Z,101992.16
2022-10-10T12:22:30.710Z,101994.91
2022-10-10T12:25:36.280Z,101998.44
2022-10-10T12:28:34.243Z,101993.31
2022-10-10T12:31:28.293Z,102002.06
2022-10-10T12:34:35.269Z,101996.66
2022-10-10T12:37:28.358Z,102003.75
2022-10-10T12:40:13.562Z,102001.03
2022-10-10T12:43:36.606Z,102007.03
2022-10-10T12:46:28.833Z,102010.50
2022-10-10T12:49:17.399Z,102013.06
2022-10-10T12:52:11.882Z,102007.88
2022-10-10T12:55:07.122Z,102009.56
2022-10-10T12:58:28.034Z,102014.91
2022-10-10T13:01:29.000Z,102004.50
2022-10-10T13:04:19.303Z,102021.31
2022-10-10T13:07:05.102Z,102022.38
2022-10-10T13:09:53.173Z,102020.63
2022-10-10T13:12:38.834Z,102024.13
2022-10-10T13:15:24.275Z,102022.41
2022-10-10T13:18:09.760Z,102019.13
2022-10-10T13:20:56.250Z,102014.13
2022-10-10T13:23:44.588Z,102014.19
2022-10-10T13:26:50.947Z,102020.22
2022-10-10T13:29:37.022Z,102016.63
2022-10-10T13:32:29.067Z,102029.06
2022-10-10T13:35:20.139Z,102025.69
2022-10-10T13:38:06.476Z,102032.75
2022-10-10T13:40:52.273Z,102026.56
2022-10-10T13:43:40.897Z,102039.72
2022-10-10T13:46:32.685Z,102035.25
2022-10-10T13:49:30.143Z,102041.34
2022-10-10T13:52:24.020Z,102046.59
2022-10-10T13:55:26.830Z,102052.84
2022-10-10T13:58:15.305Z,102045.88
2022-10-10T14:01:03.161Z,102050.22
2022-10-10T14:03:52.056Z,102056.41
2022-10-10T14:06:37.595Z,102056.34
2022-10-10T14:09:29.004Z,102050.88
2022-10-10T14:12:35.026Z,102049.81
2022-10-10T14:15:31.074Z,102061.34
2022-10-10T14:18:17.898Z,102063.97
2022-10-10T14:21:04.165Z,102067.53
2022-10-10T14:23:49.657Z,102066.63
2022-10-10T14:26:35.896Z,102071.91
2022-10-10T14:29:21.896Z,102083.28
2022-10-10T14:32:08.816Z,102073.56
2022-10-10T14:34:54.382Z,102079.72
2022-10-10T14:37:39.753Z,102075.31
2022-10-10T14:40:29.468Z,102069.22
2022-10-10T14:43:16.958Z,102078.06
2022-10-10T14:46:02.532Z,102083.31
2022-10-10T14:48:48.177Z,102082.44
2022-10-10T14:51:38.566Z,102086.78
2022-10-10T14:54:23.894Z,102089.28
2022-10-10T14:57:12.659Z,102086.53
2022-10-10T14:59:58.079Z,102096.06
2022-10-10T15:02:45.771Z,102082.06
2022-10-10T15:05:31.737Z,102088.28
2022-10-10T15:08:19.308Z,102092.53
2022-10-10T15:11:05.333Z,102090.88
2022-10-10T15:13:50.774Z,102095.31
2022-10-10T15:16:36.321Z,102105.00
2022-10-10T15:19:21.472Z,102102.34
2022-10-10T15:22:07.097Z,102106.75
2022-10-10T15:24:52.508Z,102089.25
2022-10-10T15:27:38.640Z,102105.94
2022-10-10T15:30:25.088Z,102100.69
2022-10-10T15:33:10.916Z,102109.44
2022-10-10T15:36:09.497Z,102108.53
2022-10-10T15:38:55.615Z,102111.19
2022-10-10T15:41:41.262Z,102117.28
2022-10-10T15:44:27.111Z,102119.88
2022-10-10T15:47:13.979Z,102124.34
2022-10-10T15:49:59.642Z,102133.19
2022-10-10T15:52:45.229Z,102134.94
2022-10-10T15:55:30.623Z,102128.72
2022-10-10T15:58:16.599Z,102127.63
2022-10-10T16:01:13.081Z,102130.03
2022-10-10T16:03:58.912Z,102126.38
2022-10-10T16:06:53.932Z,102137.56
2022-10-10T16:09:45.188Z,102134.81
2022-10-10T16:12:30.840Z,102145.25
2022-10-10T16:15:16.441Z,102145.09
2022-10-10T16:18:02.381Z,102145.88
2022-10-10T16:20:48.691Z,102151.09
2022-10-10T16:23:34.057Z,102152.81
2022-10-10T16:26:26.785Z,102153.66
2022-10-10T16:29:12.958Z,102147.53
2022-10-10T16:31:58.528Z,102151.00
2022-10-10T16:34:44.054Z,102153.50
2022-10-10T16:37:29.443Z,102151.78
2022-10-10T16:40:14.808Z,102152.63
2022-10-10T16:43:00.381Z,102158.66
2022-10-10T16:45:46.373Z,102157.66
2022-10-10T16:48:33.653Z,102163.59
2022-10-10T16:51:21.239Z,102159.94
2022-10-10T16:54:07.444Z,102165.94
2022-10-10T16:56:52.826Z,102171.91
2022-10-10T16:59:38.468Z,102167.34
2022-10-10T17:02:25.172Z,102174.16
2022-10-10T17:05:10.797Z,102176.63
2022-10-10T17:07:56.244Z,102177.38
2022-10-10T17:10:43.540Z,102182.47
2022-10-10T17:13:31.328Z,102186.69
2022-10-10T17:19:28.526Z,102185.47
2022-10-10T17:22:14.295Z,102187.91
2022-10-10T17:24:59.619Z,102192.16
2022-10-10T17:27:44.873Z,102190.25
2022-10-10T17:30:30.212Z,102200.50
2022-10-10T17:33:17.892Z,102198.56
2022-10-10T17:36:09.043Z,102205.28
2022-10-10T17:39:00.383Z,102200.69
2022-10-10T17:41:50.065Z,102207.31
2022-10-10T17:44:42.008Z,102212.19
2022-10-10T17:47:30.809Z,102212.84
2022-10-10T17:50:16.535Z,102220.41
2022-10-10T17:53:03.504Z,102219.91
2022-10-10T17:55:49.502Z,102222.84
2022-10-10T17:58:35.145Z,102229.22
2022-10-10T18:01:21.482Z,102233.91
2022-10-10T18:04:07.701Z,102240.47
2022-10-10T18:06:53.101Z,102247.78
2022-10-10T18:09:38.738Z,102252.75
2022-10-10T18:12:24.207Z,102256.75
2022-10-10T18:15:10.732Z,102258.19
2022-10-10T18:17:56.394Z,102267.69
2022-10-10T18:20:42.079Z,102276.16
2022-10-10T18:23:28.231Z,102275.13
2022-10-10T18:26:19.938Z,102282.03
2022-10-10T18:29:05.347Z,102280.22
2022-10-10T18:31:50.911Z,102281.06
2022-10-10T18:34:36.298Z,102281.72
2022-10-10T18:37:21.815Z,102285.72
2022-10-10T18:40:07.988Z,102285.25
2022-10-10T18:42:53.533Z,102295.22
2022-10-10T18:45:39.265Z,102298.50
2022-10-10T18:48:24.921Z,102297.38
2022-10-10T18:51:14.326Z,102301.16
2022-10-10T18:54:03.896Z,102312.88
2022-10-10T18:56:49.316Z,102296.78
2022-10-10T18:59:34.736Z,102297.25
2022-10-10T19:02:20.247Z,102303.53
2022-10-10T19:05:05.818Z,102307.75
2022-10-10T19:07:51.487Z,102322.03
2022-10-10T19:10:43.766Z,102318.00
2022-10-10T19:13:29.691Z,102325.50
2022-10-10T19:16:15.659Z,102331.22
2022-10-10T19:19:01.893Z,102333.47
2022-10-10T19:21:48.599Z,102331.53
2022-10-10T19:24:34.398Z,102332.94
2022-10-10T19:27:20.306Z,102337.22
2022-10-10T19:30:06.024Z,102345.28
2022-10-10T19:32:51.455Z,102351.47
2022-10-10T19:35:41.767Z,102356.06
2022-10-10T19:38:28.018Z,102360.34
2022-10-10T19:41:14.548Z,102361.84
2022-10-10T19:44:04.859Z,102374.16
2022-10-10T19:46:50.608Z,102381.25
2022-10-10T19:49:36.038Z,102380.34
2022-10-10T19:52:22.363Z,102373.78
2022-10-10T19:55:08.384Z,102385.59
2022-10-10T19:57:53.735Z,102384.66
2022-10-10T20:00:39.370Z,102390.53
2022-10-10T20:03:25.477Z,102377.13
2022-10-10T20:06:11.651Z,102378.09
2022-10-10T20:08:57.389Z,102383.97
2022-10-10T20:11:42.840Z,102381.25
2022-10-10T20:14:28.405Z,102389.28
2022-10-10T20:17:14.266Z,102387.53
2022-10-10T20:20:00.084Z,102389.84
2022-10-10T20:22:45.848Z,102390.88
2022-10-10T20:25:31.502Z,102397.94
2022-10-10T20:28:18.772Z,102390.28
2022-10-10T20:31:04.581Z,102386.81
2022-10-10T20:33:52.588Z,102391.53
2022-10-10T20:36:39.297Z,102397.00
2022-10-10T20:39:24.895Z,102400.59
2022-10-10T20:42:10.419Z,102392.81
2022-10-10T20:44:55.870Z,102392.03
2022-10-10T20:47:41.211Z,102392.06
2022-10-10T20:50:26.673Z,102391.25
2022-10-10T20:53:12.309Z,102392.97
2022-10-10T20:55:57.815Z,102397.41
2022-10-10T20:58:43.149Z,102403.59
2022-10-10T21:01:30.636Z,102400.84
2022-10-10T21:04:16.905Z,102402.03
2022-10-10T21:07:02.539Z,102403.25
2022-10-10T21:09:48.317Z,102406.91
2022-10-10T21:12:33.851Z,102398.44
2022-10-10T21:15:19.268Z,102401.19
2022-10-10T21:18:04.977Z,102407.59
2022-10-10T21:20:50.576Z,102415.03
2022-10-10T21:23:39.374Z,102413.56
2022-10-10T21:26:28.458Z,102413.84
2022-10-10T21:29:13.955Z,102409.69
2022-10-10T21:31:59.730Z,102414.75
2022-10-10T21:34:45.128Z,102409.69
2022-10-10T21:37:32.325Z,102415.88
2022-10-10T21:40:18.083Z,102421.59
2022-10-10T21:43:04.630Z,102421.47
2022-10-10T21:45:50.287Z,102430.13
2022-10-10T21:48:36.168Z,102431.88
2022-10-10T21:51:22.296Z,102432.78
2022-10-10T21:54:08.654Z,102440.84
2022-10-10T21:56:54.194Z,102443.44
2022-10-10T21:59:39.923Z,102440.31
2022-10-10T22:02:25.265Z,102449.72
2022-10-10T22:05:13.902Z,102452.88
2022-10-10T22:07:59.531Z,102442.63
2022-10-10T22:10:45.561Z,102449.72
2022-10-10T22:13:31.319Z,102448.81
2022-10-10T22:16:17.901Z,102462.84
2022-10-10T22:19:04.417Z,102463.25
2022-10-10T22:21:50.008Z,102465.50
2022-10-10T22:24:36.767Z,102466.25
2022-10-10T22:27:22.349Z,102462.63
2022-10-10T22:30:09.666Z,102468.16
2022-10-10T22:32:54.987Z,102465.22
2022-10-10T22:35:40.552Z,102458.03
2022-10-10T22:38:26.303Z,102462.00
2022-10-10T22:41:13.516Z,102468.13
2022-10-10T22:43:59.893Z,102466.03
2022-10-10T22:46:45.471Z,102463.78
2022-10-10T22:49:31.967Z,102472.13
2022-10-10T22:52:18.651Z,102467.13
2022-10-10T22:55:05.391Z,102472.00
2022-10-10T22:57:50.865Z,102470.34
2022-10-10T23:00:36.414Z,102470.19
2022-10-10T23:03:22.189Z,102470.81
2022-10-10T23:06:08.490Z,102468.28
2022-10-10T23:08:54.018Z,102471.28
2022-10-10T23:11:39.514Z,102468.97
2022-10-10T23:14:25.033Z,102472.50
2022-10-10T23:17:10.229Z,102461.44
2022-10-10T23:19:55.726Z,102461.69
2022-10-10T23:22:41.193Z,102462.03
2022-10-10T23:25:27.043Z,102457.91
2022-10-10T23:28:13.716Z,102462.28
2022-10-10T23:31:04.904Z,102459.56
2022-10-10T23:33:50.456Z,102454.31
2022-10-10T23:36:35.811Z,102457.59
2022-10-10T23:39:21.233Z,102454.69
2022-10-10T23:42:06.539Z,102453.41
2022-10-10T23:44:51.803Z,102448.91
2022-10-10T23:47:37.081Z,102454.91
2022-10-10T23:50:22.600Z,102453.28
2022-10-10T23:53:08.154Z,102455.44
2022-10-10T23:55:54.025Z,102442.00
2022-10-10T23:58:39.486Z,102448.13
